Time;durP1;ratioP1;P1;durP2;ratioP2;P2;SDS_P1;SDS_P2;PMS_P1;PMS_P2;Temp;Humidity;BMP_temperature;BMP_pressure;BME280_temperature;BME280_humidity;BME280_pressure;Samples;Min_cycle;Max_cycle;Signal;HPM_P1;HPM_P2
2021/10/06 00:00:35;;;;;;;13.10;4.60;;;;;;;9.78;62.47;101081.63;27214;1216;3070781;-74
2021/10/06 00:03:04;;;;;;;11.00;4.90;;;;;;;9.81;62.13;101084.02;27257;1216;3026592;-72
2021/10/06 00:05:36;;;;;;;8.80;5.10;;;;;;;9.73;62.77;101088.80;27227;1215;3027142;-74
2021/10/06 00:08:05;;;;;;;15.50;4.90;;;;;;;9.71;62.89;101093.58;27205;1216;3026716;-74
2021/10/06 00:10:34;;;;;;;17.30;5.00;;;;;;;9.74;62.79;101088.27;27245;1215;3048209;-73
2021/10/06 00:13:03;;;;;;;9.80;5.10;;;;;;;9.68;63.08;101090.02;27243;1215;3027171;-73
2021/10/06 00:15:32;;;;;;;11.40;5.40;;;;;;;9.63;63.20;101090.70;27225;1218;3070650;-73
2021/10/06 00:18:01;;;;;;;8.40;4.80;;;;;;;9.50;63.72;101094.39;27281;1216;3025809;-72
2021/10/06 00:20:30;;;;;;;12.10;5.70;;;;;;;9.53;63.28;101090.11;27259;1216;3050640;-72
2021/10/06 00:22:59;;;;;;;12.50;5.40;;;;;;;9.51;63.33;101092.80;27200;1216;3026567;-72
2021/10/06 00:25:28;;;;;;;8.60;5.20;;;;;;;9.42;64.12;101095.17;27244;1216;3054090;-74
2021/10/06 00:27:57;;;;;;;14.30;5.40;;;;;;;9.39;64.09;101091.75;27237;1216;3027718;-73
2021/10/06 00:30:26;;;;;;;9.70;5.10;;;;;;;9.38;63.84;101094.77;27214;1216;3051575;-74
2021/10/06 00:32:55;;;;;;;9.70;5.10;;;;;;;9.36;64.07;101093.26;27256;1216;3025954;-73
2021/10/06 00:35:24;;;;;;;11.70;5.10;;;;;;;9.35;64.03;101093.99;27222;1218;3055336;-71
2021/10/06 00:37:53;;;;;;;18.30;5.00;;;;;;;9.28;64.47;101097.35;27275;1216;3025909;-72
2021/10/06 00:40:21;;;;;;;10.90;5.30;;;;;;;9.26;64.42;101094.06;27234;1218;3051941;-73
2021/10/06 00:42:50;;;;;;;9.50;4.70;;;;;;;9.25;64.64;101097.95;27230;1215;3026025;-74
2021/10/06 00:45:19;;;;;;;8.00;4.80;;;;;;;9.21;64.68;101098.40;27247;1216;3052020;-75
2021/10/06 00:47:48;;;;;;;12.10;4.80;;;;;;;9.12;65.04;101094.64;27223;1215;3026145;-71
2021/10/06 00:50:17;;;;;;;10.60;4.60;;;;;;;9.16;64.42;101096.62;27241;1216;3050806;-71
2021/10/06 00:52:46;;;;;;;9.10;4.60;;;;;;;9.14;64.67;101100.88;27252;1216;3030342;-72
2021/10/06 00:55:15;;;;;;;14.70;5.50;;;;;;;9.07;65.16;101102.14;27211;1209;3068958;-73
2021/10/06 00:57:44;;;;;;;8.80;4.70;;;;;;;9.06;64.89;101102.69;27225;1216;3028434;-71
2021/10/06 01:00:13;;;;;;;8.90;4.70;;;;;;;9.06;64.85;101101.80;27224;1216;3053848;-73
2021/10/06 01:02:42;;;;;;;15.80;5.00;;;;;;;9.01;65.08;101103.18;27244;1218;3026067;-73
2021/10/06 01:05:11;;;;;;;7.90;4.50;;;;;;;8.97;65.17;101104.86;27277;1209;3054171;-72
2021/10/06 01:07:40;;;;;;;16.40;4.70;;;;;;;8.98;64.99;101110.41;27218;1216;3026036;-71
2021/10/06 01:10:10;;;;;;;10.90;5.30;;;;;;;8.94;65.17;101107.21;27202;1216;3049021;-72
2021/10/06 01:12:40;;;;;;;9.50;5.60;;;;;;;8.90;65.46;101115.36;27222;1215;3028409;-73
2021/10/06 01:15:11;;;;;;;12.50;5.00;;;;;;;8.90;65.01;101113.41;27280;1216;3028798;-72
2021/10/06 01:17:41;;;;;;;8.40;4.80;;;;;;;8.90;65.25;101115.70;27236;1216;3026029;-73
2021/10/06 01:20:10;;;;;;;8.40;4.60;;;;;;;8.85;65.50;101119.15;27297;1215;3026463;-73
2021/10/06 01:22:39;;;;;;;11.00;4.90;;;;;;;8.84;65.53;101118.15;27245;1217;3050527;-71
2021/10/06 01:25:10;;;;;;;13.20;4.80;;;;;;;8.77;65.69;101119.37;27215;1216;3026925;-73
2021/10/06 01:27:40;;;;;;;7.10;4.20;;;;;;;8.72;65.81;101118.65;27223;1216;3054784;-72
2021/10/06 01:30:10;;;;;;;8.40;4.50;;;;;;;8.73;65.65;101126.80;27270;1216;3026316;-75
2021/10/06 01:32:40;;;;;;;9.40;4.10;;;;;;;8.75;65.56;101127.81;27229;1216;3026706;-74
2021/10/06 01:35:10;;;;;;;11.40;4.60;;;;;;;8.74;65.78;101129.05;27201;1218;3026125;-76
2021/10/06 01:37:41;;;;;;;6.70;3.80;;;;;;;8.72;66.01;101127.89;27214;1216;3027120;-74
2021/10/06 01:40:12;;;;;;;10.30;3.60;;;;;;;9.30;64.91;101132.94;27270;1216;3026079;-71
2021/10/06 01:42:41;;;;;;;10.90;5.00;;;;;;;9.91;63.12;101126.92;27284;1216;3026516;-74
2021/10/06 01:45:21;;;;;;;17.60;4.90;;;;;;;10.03;62.59;101123.74;27279;1216;3025901;-73
2021/10/06 01:47:50;;;;;;;11.90;5.40;;;;;;;9.88;62.23;101124.74;27238;1217;3051335;-72
2021/10/06 01:50:21;;;;;;;11.50;5.10;;;;;;;9.76;62.40;101127.04;27255;1216;3026299;-73
2021/10/06 01:52:50;;;;;;;11.70;5.30;;;;;;;9.66;62.33;101128.21;27240;1216;3052455;-73
2021/10/06 01:55:26;;;;;;;11.30;5.90;;;;;;;9.51;62.64;101124.10;27231;1216;3026525;-74
2021/10/06 01:57:56;;;;;;;13.00;5.20;;;;;;;9.32;63.15;101128.17;27219;1219;3056001;-73
2021/10/06 02:00:26;;;;;;;12.90;5.70;;;;;;;9.24;63.10;101129.95;27260;1216;3028498;-72
2021/10/06 02:02:55;;;;;;;11.70;5.00;;;;;;;9.18;63.38;101131.89;27272;1217;3028248;-72
2021/10/06 02:05:24;;;;;;;14.20;5.10;;;;;;;9.15;63.16;101133.72;27267;1216;3026036;-73
2021/10/06 02:07:53;;;;;;;12.20;5.10;;;;;;;9.16;62.97;101134.03;27235;1216;3050567;-73
2021/10/06 02:10:22;;;;;;;9.90;5.20;;;;;;;9.15;62.93;101133.91;27218;1216;3026119;-74
2021/10/06 02:12:53;;;;;;;10.90;5.30;;;;;;;9.19;62.78;101136.75;27231;1216;3057155;-72
2021/10/06 02:15:22;;;;;;;8.90;5.30;;;;;;;9.21;62.71;101134.26;27211;1216;3027821;-72
2021/10/06 02:17:51;;;;;;;11.20;5.80;;;;;;;9.22;62.76;101131.07;27240;1216;3028105;-72
2021/10/06 02:20:20;;;;;;;14.10;6.20;;;;;;;9.24;62.75;101130.30;27193;1216;3056315;-73
2021/10/06 02:22:49;;;;;;;14.00;6.60;;;;;;;9.24;62.85;101131.54;27217;1216;3025617;-75
2021/10/06 02:25:18;;;;;;;22.40;7.00;;;;;;;9.28;62.64;101134.39;27252;1216;3051128;-70
2021/10/06 02:27:47;;;;;;;19.90;7.70;;;;;;;9.30;62.61;101132.07;27274;1216;3029568;-71
2021/10/06 02:30:16;;;;;;;12.00;6.80;;;;;;;9.33;62.44;101136.35;27258;1216;3051720;-71
2021/10/06 02:32:45;;;;;;;17.30;8.10;;;;;;;9.31;62.70;101133.27;27237;1216;3027180;-77
2021/10/06 02:35:15;;;;;;;12.20;7.90;;;;;;;9.31;62.75;101135.55;27229;1216;3027852;-73
2021/10/06 02:37:44;;;;;;;15.20;8.30;;;;;;;9.27;62.91;101133.91;27197;1216;3026366;-72
2021/10/06 02:40:14;;;;;;;19.30;8.20;;;;;;;9.26;63.02;101139.35;27223;1216;3051980;-72
2021/10/06 02:42:45;;;;;;;16.00;9.40;;;;;;;9.19;63.17;101138.32;27242;1216;3026235;-73
2021/10/06 02:45:15;;;;;;;13.00;8.90;;;;;;;9.22;62.89;101142.07;27244;1216;3026131;-74
2021/10/06 02:47:46;;;;;;;13.70;9.10;;;;;;;9.23;62.81;101144.84;27273;1216;3027884;-72
2021/10/06 02:50:17;;;;;;;15.20;9.50;;;;;;;9.14;63.03;101138.80;27251;1216;3028190;-72
2021/10/06 02:52:46;;;;;;;15.50;10.20;;;;;;;9.06;63.35;101143.04;27218;1216;3029838;-71
2021/10/06 02:55:16;;;;;;;22.70;9.60;;;;;;;9.09;62.85;101145.27;27250;1209;3026293;-72
2021/10/06 02:57:45;;;;;;;19.40;10.80;;;;;;;9.08;62.79;101146.69;27412;1216;3050757;-71
2021/10/06 03:00:14;;;;;;;23.20;11.10;;;;;;;9.00;63.19;101150.90;27212;1216;3026422;-72
2021/10/06 03:02:43;;;;;;;23.20;11.70;;;;;;;8.91;63.57;101157.63;27217;1216;3055123;-74
2021/10/06 03:05:12;;;;;;;23.70;11.40;;;;;;;8.78;63.61;101152.90;27287;1216;3026522;-74
2021/10/06 03:07:41;;;;;;;26.20;12.20;;;;;;;8.70;63.46;101155.53;27205;1216;3051501;-71
2021/10/06 03:10:11;;;;;;;26.60;11.50;;;;;;;8.69;63.47;101156.09;27275;1216;3026184;-71
2021/10/06 03:12:40;;;;;;;23.60;11.80;;;;;;;8.67;63.20;101158.08;27265;1217;3057574;-72
2021/10/06 03:15:10;;;;;;;24.70;11.80;;;;;;;8.62;63.10;101157.15;27325;1216;3026451;-71
2021/10/06 03:17:39;;;;;;;19.70;10.40;;;;;;;8.55;62.94;101157.33;27240;1216;3051687;-73
2021/10/06 03:20:11;;;;;;;19.60;10.20;;;;;;;8.41;62.92;101156.95;27203;1216;3026323;-71
2021/10/06 03:22:40;;;;;;;18.80;9.70;;;;;;;8.28;62.81;101160.57;27213;1216;3054262;-73
2021/10/06 03:25:09;;;;;;;19.60;9.80;;;;;;;8.27;62.48;101162.54;27331;1216;3026233;-72
2021/10/06 03:27:38;;;;;;;17.40;8.00;;;;;;;8.21;62.21;101157.42;27229;1216;3050845;-70
2021/10/06 03:30:08;;;;;;;15.70;7.70;;;;;;;8.18;61.61;101154.00;27262;1215;3027637;-71
2021/10/06 03:32:38;;;;;;;14.90;6.90;;;;;;;8.09;61.49;101158.40;27247;1216;3067402;-73
2021/10/06 03:35:07;;;;;;;16.20;6.70;;;;;;;7.99;61.22;101155.33;27266;1216;3029530;-71
2021/10/06 03:37:37;;;;;;;15.60;7.00;;;;;;;7.99;60.91;101158.45;27239;1216;3050494;-73
2021/10/06 03:40:07;;;;;;;15.10;6.40;;;;;;;7.93;60.80;101158.95;27276;1216;3026052;-73
2021/10/06 03:42:37;;;;;;;16.90;6.40;;;;;;;7.83;60.55;101158.48;27280;1216;3026741;-75
2021/10/06 03:45:08;;;;;;;18.50;6.30;;;;;;;7.79;60.28;101158.04;27257;1219;3027186;-71
2021/10/06 03:47:39;;;;;;;16.60;6.20;;;;;;;7.78;60.10;101160.86;27259;1216;3026494;-74
2021/10/06 03:50:09;;;;;;;18.30;6.00;;;;;;;7.61;60.06;101157.73;27218;1216;3027858;-73
2021/10/06 03:52:38;;;;;;;15.10;5.70;;;;;;;7.58;59.38;101159.00;27270;1216;3051538;-73
2021/10/06 03:55:09;;;;;;;14.00;4.60;;;;;;;7.53;59.32;101162.77;27241;1216;3027360;-72
2021/10/06 03:57:38;;;;;;;8.90;4.90;;;;;;;7.49;59.34;101167.56;27243;1216;3026793;-73
2021/10/06 04:00:08;;;;;;;14.30;5.40;;;;;;;7.47;59.24;101169.52;27230;1209;3026020;-73
2021/10/06 04:02:37;;;;;;;17.50;5.20;;;;;;;7.42;59.59;101163.51;27258;1216;3052048;-74
2021/10/06 04:05:07;;;;;;;9.70;5.40;;;;;;;7.45;59.41;101166.09;27229;1216;3026345;-75
2021/10/06 04:07:36;;;;;;;16.60;5.50;;;;;;;7.48;59.27;101164.62;27280;1216;3051330;-75
2021/10/06 04:10:24;;;;;;;11.20;5.70;;;;;;;7.39;59.52;101165.86;27227;1216;3052527;-73
2021/10/06 04:12:54;;;;;;;11.40;4.70;;;;;;;7.41;58.99;101169.30;27219;1216;3026447;-73
2021/10/06 04:15:23;;;;;;;19.40;5.50;;;;;;;7.31;58.72;101172.09;27205;1216;3026427;-73
2021/10/06 04:17:53;;;;;;;11.40;5.30;;;;;;;7.30;58.54;101176.66;27246;1216;3053939;-75
2021/10/06 04:20:22;;;;;;;12.40;4.20;;;;;;;7.29;58.33;101175.28;27269;1216;3028284;-73
2021/10/06 04:22:50;;;;;;;13.70;4.10;;;;;;;7.27;58.05;101183.34;27230;1216;3052331;-73
2021/10/06 04:25:19;;;;;;;15.60;4.10;;;;;;;7.26;57.73;101185.63;27259;1208;3025994;-71
2021/10/06 04:27:48;;;;;;;8.10;3.60;;;;;;;7.27;57.77;101191.19;27233;1216;3048055;-76
2021/10/06 04:30:17;;;;;;;9.40;4.00;;;;;;;7.24;57.74;101190.55;27255;1216;3026559;-74
2021/10/06 04:32:49;;;;;;;14.60;3.80;;;;;;;7.30;57.77;101192.52;27249;1216;3069869;-73
2021/10/06 04:35:18;;;;;;;11.80;4.20;;;;;;;7.27;57.68;101196.40;27201;1216;3026348;-72
2021/10/06 04:37:47;;;;;;;14.10;3.90;;;;;;;7.24;57.73;101197.53;27244;1216;3026018;-73
2021/10/06 04:40:16;;;;;;;13.50;4.10;;;;;;;7.27;57.46;101199.22;27228;1216;3069607;-74
2021/10/06 04:42:46;;;;;;;11.20;3.70;;;;;;;7.28;57.23;101194.48;27249;1209;3026230;-74
2021/10/06 04:45:15;;;;;;;10.40;3.90;;;;;;;7.22;57.03;101200.35;27283;1216;3050257;-74
2021/10/06 04:47:46;;;;;;;9.80;3.60;;;;;;;7.26;56.93;101201.67;27222;1221;3026405;-73
2021/10/06 04:50:15;;;;;;;8.10;3.20;;;;;;;7.31;56.63;101202.44;27242;1208;3027930;-72
2021/10/06 04:52:49;;;;;;;14.30;3.70;;;;;;;7.36;56.46;101198.86;27276;1216;3029247;-74
2021/10/06 04:55:17;;;;;;;11.30;3.20;;;;;;;7.33;56.17;101205.35;27244;1216;3026553;-76
2021/10/06 04:57:49;;;;;;;7.90;3.30;;;;;;;7.30;56.19;101193.58;27205;1216;3052754;-74
2021/10/06 05:00:19;;;;;;;8.30;3.50;;;;;;;7.25;56.43;101195.76;27253;1216;3027503;-74
2021/10/06 05:02:49;;;;;;;9.80;3.10;;;;;;;7.31;56.26;101192.50;27267;1216;3027202;-74
2021/10/06 05:05:18;;;;;;;6.40;2.80;;;;;;;7.34;55.88;101188.27;27225;1216;3026606;-73
2021/10/06 05:07:48;;;;;;;7.80;2.90;;;;;;;7.27;55.53;101192.25;27197;1215;3051523;-75
2021/10/06 05:10:17;;;;;;;8.80;3.30;;;;;;;7.26;55.67;101190.68;27266;1216;3026464;-73
2021/10/06 05:12:46;;;;;;;6.00;2.60;;;;;;;7.30;55.59;101188.16;27262;1216;3047733;-73
2021/10/06 05:15:35;;;;;;;10.00;2.60;;;;;;;7.28;55.43;101193.08;27264;1216;3054894;-72
2021/10/06 05:18:04;;;;;;;9.50;2.70;;;;;;;7.32;55.37;101198.95;27231;1209;3027207;-71
2021/10/06 05:20:33;;;;;;;13.20;3.40;;;;;;;7.39;54.91;101199.16;27277;1216;3050247;-74
2021/10/06 05:23:01;;;;;;;11.90;2.40;;;;;;;7.45;54.53;101202.34;27210;1216;3028886;-72
2021/10/06 05:25:31;;;;;;;7.70;2.80;;;;;;;7.42;54.60;101200.33;27240;1215;3070138;-72
2021/10/06 05:28:00;;;;;;;6.50;2.50;;;;;;;7.52;53.89;101203.77;27257;1216;3026064;-73
2021/10/06 05:30:29;;;;;;;9.40;2.20;;;;;;;7.43;54.17;101208.67;27275;1216;3054571;-72
2021/10/06 05:32:57;;;;;;;10.30;2.30;;;;;;;7.44;54.05;101207.08;27274;1216;3026523;-74
2021/10/06 05:35:26;;;;;;;6.30;2.30;;;;;;;7.52;53.76;101207.60;27280;1216;3052454;-75
2021/10/06 05:37:55;;;;;;;13.40;2.60;;;;;;;7.60;53.81;101208.32;27288;1215;3028165;-73
2021/10/06 05:40:24;;;;;;;7.60;2.50;;;;;;;7.61;53.06;101213.02;27179;1216;3048771;-76
2021/10/06 05:42:53;;;;;;;10.30;2.50;;;;;;;7.60;52.85;101220.71;27243;1216;3026220;-76
2021/10/06 05:45:22;;;;;;;7.80;4.30;;;;;;;7.67;52.64;101223.86;27253;1216;3057305;-72
2021/10/06 05:47:51;;;;;;;7.60;3.00;;;;;;;7.73;52.55;101229.49;27237;1216;3026055;-75
2021/10/06 05:50:20;;;;;;;9.20;3.70;;;;;;;7.77;52.61;101228.90;27220;1216;3051429;-74
2021/10/06 05:52:49;;;;;;;9.60;3.00;;;;;;;7.80;52.45;101233.04;27220;1216;3027736;-73
2021/10/06 05:55:18;;;;;;;6.90;2.50;;;;;;;7.84;52.30;101231.02;27203;1216;3051021;-71
2021/10/06 05:57:47;;;;;;;7.30;2.60;;;;;;;7.84;51.80;101232.76;27256;1216;3026224;-74
2021/10/06 06:00:16;;;;;;;12.30;2.80;;;;;;;7.89;51.40;101233.36;27210;1216;3050285;-74
2021/10/06 06:02:46;;;;;;;6.70;2.20;;;;;;;7.93;51.17;101236.23;27226;1216;3027344;-76
2021/10/06 06:05:15;;;;;;;6.10;2.60;;;;;;;8.07;51.66;101235.07;27211;1216;3067630;-73
2021/10/06 06:07:45;;;;;;;18.00;2.50;;;;;;;8.06;50.99;101237.70;27224;1216;3026053;-74
2021/10/06 06:10:15;;;;;;;14.40;2.30;;;;;;;8.12;50.77;101239.31;27227;1216;3026046;-75
2021/10/06 06:12:46;;;;;;;9.40;2.80;;;;;;;8.18;50.26;101237.25;27229;1216;3070100;-77
2021/10/06 06:15:15;;;;;;;20.00;2.80;;;;;;;8.30;50.45;101240.83;27238;1216;3026756;-72
2021/10/06 06:17:44;;;;;;;5.90;2.30;;;;;;;8.36;50.01;101236.48;27236;1210;3026373;-73
2021/10/06 06:20:15;;;;;;;11.20;2.30;;;;;;;8.38;49.75;101238.73;27269;1216;3027099;-73
2021/10/06 06:22:44;;;;;;;5.40;2.10;;;;;;;8.42;49.46;101238.65;27257;1216;3048445;-72
2021/10/06 06:25:13;;;;;;;7.00;2.50;;;;;;;8.50;49.42;101237.61;27224;1216;3027924;-73
2021/10/06 06:27:41;;;;;;;18.80;2.40;;;;;;;8.57;49.37;101239.55;27238;1216;3070445;-73
2021/10/06 06:30:10;;;;;;;12.40;2.30;;;;;;;8.62;48.95;101236.46;27266;1216;3028130;-73
2021/10/06 06:32:41;;;;;;;9.70;2.30;;;;;;;8.66;48.71;101234.78;27223;1216;3052534;-76
2021/10/06 06:35:10;;;;;;;7.50;2.50;;;;;;;8.81;48.16;101231.96;27201;1216;3026959;-74
2021/10/06 06:37:39;;;;;;;10.40;2.30;;;;;;;8.81;47.95;101231.10;27220;1216;3028057;-73
2021/10/06 06:40:09;;;;;;;8.10;2.10;;;;;;;8.86;47.48;101227.47;27240;1209;3027182;-72
2021/10/06 06:42:38;;;;;;;13.20;2.90;;;;;;;8.95;46.58;101223.58;27250;1216;3070488;-72
2021/10/06 06:45:08;;;;;;;14.70;2.40;;;;;;;9.08;46.81;101225.86;27253;1210;3028932;-75
2021/10/06 06:47:41;;;;;;;15.60;2.50;;;;;;;9.14;46.09;101230.40;27231;1217;3053339;-73
2021/10/06 06:50:11;;;;;;;8.20;2.00;;;;;;;9.19;45.83;101235.20;27241;1216;3026721;-72
2021/10/06 06:52:40;;;;;;;10.90;2.20;;;;;;;9.29;45.72;101231.24;27271;1216;3026811;-76
2021/10/06 06:55:10;;;;;;;13.00;2.60;;;;;;;9.31;45.98;101236.11;27200;1216;3026117;-74
2021/10/06 06:57:39;;;;;;;9.40;2.00;;;;;;;9.33;45.91;101235.87;27227;1210;3026517;-73
2021/10/06 07:00:08;;;;;;;17.60;2.80;;;;;;;9.47;45.57;101233.73;27241;1216;3048366;-74
2021/10/06 07:02:38;;;;;;;10.10;3.10;;;;;;;9.52;45.16;101232.02;27251;1216;3026298;-72
2021/10/06 07:05:07;;;;;;;13.20;2.20;;;;;;;9.62;44.73;101236.11;27231;1218;3028424;-72
2021/10/06 07:07:36;;;;;;;8.60;2.00;;;;;;;9.69;44.56;101231.88;27220;1216;3047763;-71
2021/10/06 07:10:11;;;;;;;17.20;2.20;;;;;;;9.76;44.04;101233.27;27236;1216;3054567;-73
2021/10/06 07:12:41;;;;;;;14.90;2.20;;;;;;;9.82;43.95;101235.38;27313;1216;3026369;-70
2021/10/06 07:15:09;;;;;;;13.40;3.20;;;;;;;9.85;43.81;101232.29;27380;1212;3026287;-74
2021/10/06 07:17:39;;;;;;;12.10;2.30;;;;;;;9.95;43.62;101235.68;27302;1216;3053688;-73
2021/10/06 07:20:08;;;;;;;10.80;2.20;;;;;;;9.93;43.52;101230.67;27233;1216;3028593;-74
2021/10/06 07:22:38;;;;;;;18.40;2.30;;;;;;;9.92;42.77;101228.41;27280;1216;3048121;-76
2021/10/06 07:25:07;;;;;;;11.50;2.00;;;;;;;9.96;41.68;101229.36;27274;1216;3025716;-72
2021/10/06 07:27:36;;;;;;;9.30;1.70;;;;;;;10.02;42.06;101231.27;27247;1216;3070399;-73
2021/10/06 07:30:05;;;;;;;18.70;2.50;;;;;;;10.16;42.15;101236.98;27233;1216;3026704;-72
2021/10/06 07:32:37;;;;;;;6.90;1.80;;;;;;;10.21;42.25;101234.73;27275;1216;3049883;-77
2021/10/06 07:35:07;;;;;;;8.20;1.60;;;;;;;10.34;42.38;101227.33;27221;1216;3026549;-75
2021/10/06 07:37:36;;;;;;;26.90;2.40;;;;;;;10.35;41.38;101220.28;27310;1219;3055070;-74
2021/10/06 07:40:09;;;;;;;21.80;2.00;;;;;;;10.44;40.72;101216.52;27366;1215;3026593;-74
2021/10/06 07:42:38;;;;;;;9.90;1.90;;;;;;;10.62;40.12;101218.39;27507;1216;3050016;-74
2021/10/06 07:45:07;;;;;;;11.70;2.10;;;;;;;10.60;39.97;101214.95;27227;1216;3026376;-77
2021/10/06 07:47:36;;;;;;;7.90;1.70;;;;;;;10.59;40.09;101205.17;27214;1215;3059657;-73
2021/10/06 07:50:06;;;;;;;13.80;2.10;;;;;;;10.61;39.23;101203.88;27290;1206;3025762;-75
2021/10/06 07:52:36;;;;;;;29.60;2.30;;;;;;;10.67;39.08;101207.70;27270;1215;3026189;-77
2021/10/06 07:55:05;;;;;;;11.70;2.00;;;;;;;10.70;38.90;101207.09;27256;1216;3026297;-73
2021/10/06 07:57:35;;;;;;;12.80;1.80;;;;;;;10.72;38.40;101199.46;27259;1216;3050787;-71
2021/10/06 08:00:07;;;;;;;11.40;1.90;;;;;;;10.79;38.09;101195.38;27314;1216;3026143;-68
2021/10/06 08:02:40;;;;;;;9.30;1.80;;;;;;;10.82;37.86;101193.52;27310;1216;3050472;-71
2021/10/06 08:05:09;;;;;;;7.40;1.80;;;;;;;10.82;37.61;101191.27;27320;1215;3025737;-71
2021/10/06 08:07:42;;;;;;;21.00;1.70;;;;;;;10.71;36.98;101194.60;27323;1215;3055173;-72
2021/10/06 08:10:11;;;;;;;17.60;1.60;;;;;;;10.74;36.77;101193.63;27325;1210;3026028;-73
2021/10/06 08:12:40;;;;;;;12.40;2.00;;;;;;;10.72;36.22;101193.18;27326;1215;3048868;-71
2021/10/06 08:15:10;;;;;;;19.60;1.80;;;;;;;10.85;36.67;101200.81;27277;1216;3026835;-72
2021/10/06 08:17:39;;;;;;;11.60;1.80;;;;;;;11.04;37.09;101199.64;27293;1216;3026196;-75
2021/10/06 08:20:08;;;;;;;22.20;2.30;;;;;;;11.08;37.08;101195.63;27268;1215;3026120;-75
2021/10/06 08:22:37;;;;;;;13.10;2.10;;;;;;;11.22;36.65;101196.88;27303;1215;3051551;-75
2021/10/06 08:25:06;;;;;;;15.50;1.60;;;;;;;11.33;36.29;101190.17;27293;1215;3029509;-71
2021/10/06 08:27:36;;;;;;;7.60;1.40;;;;;;;11.32;35.37;101185.82;27217;1215;3049162;-70
2021/10/06 08:30:05;;;;;;;15.20;1.70;;;;;;;11.32;35.54;101188.28;27261;1214;3027665;-71
2021/10/06 08:32:34;;;;;;;11.80;2.40;;;;;;;11.14;35.61;101180.70;27253;1216;3056080;-70
2021/10/06 08:35:04;;;;;;;18.40;1.90;;;;;;;11.15;35.16;101179.22;27256;1215;3028033;-73
2021/10/06 08:37:33;;;;;;;5.20;1.70;;;;;;;11.31;34.38;101175.70;27250;1216;3053976;-73
2021/10/06 08:40:03;;;;;;;20.30;1.70;;;;;;;11.26;34.36;101175.15;27249;1215;3026300;-76
2021/10/06 08:42:33;;;;;;;17.00;1.80;;;;;;;11.28;34.24;101167.18;27256;1215;3026635;-68
2021/10/06 08:45:06;;;;;;;14.80;1.70;;;;;;;11.35;34.05;101170.09;27225;1219;3026662;-67
2021/10/06 08:47:37;;;;;;;12.40;2.10;;;;;;;11.44;33.82;101162.57;27274;1216;3054872;-68
2021/10/06 08:50:09;;;;;;;10.00;1.30;;;;;;;11.56;33.11;101160.38;27328;1214;3026012;-75
2021/10/06 08:52:38;;;;;;;9.00;1.70;;;;;;;11.63;33.34;101163.79;27287;1215;3026602;-69
2021/10/06 08:55:07;;;;;;;10.60;1.40;;;;;;;11.60;33.27;101159.70;27242;1216;3025945;-75
2021/10/06 08:57:36;;;;;;;11.20;1.70;;;;;;;11.74;32.32;101163.03;27261;1216;3069819;-70
2021/10/06 09:00:06;;;;;;;12.90;2.00;;;;;;;11.82;32.64;101156.91;27294;1215;3026385;-73
2021/10/06 09:02:38;;;;;;;12.30;1.90;;;;;;;12.02;32.65;101157.05;27291;1215;3050573;-67
2021/10/06 09:05:08;;;;;;;9.10;1.50;;;;;;;12.06;32.83;101148.14;27225;1215;3027418;-70
2021/10/06 09:07:57;;;;;;;12.00;1.90;;;;;;;12.08;32.96;101152.27;27296;1216;3025735;-68
2021/10/06 09:10:29;;;;;;;17.00;2.00;;;;;;;12.17;32.18;101151.04;27290;1215;3052464;-75
2021/10/06 09:13:00;;;;;;;9.60;1.50;;;;;;;12.13;31.23;101141.50;27275;1215;3026305;-72
2021/10/06 09:15:49;;;;;;;18.40;2.20;;;;;;;12.14;31.75;101141.81;27290;1214;3026313;-70
2021/10/06 09:18:20;;;;;;;11.40;1.80;;;;;;;12.09;31.84;101137.79;27337;1216;3049940;-70
2021/10/06 09:20:49;;;;;;;17.70;2.10;;;;;;;12.13;32.09;101132.39;27284;1216;3026516;-70
2021/10/06 09:23:21;;;;;;;20.30;2.10;;;;;;;12.20;32.24;101141.25;27234;1215;3026429;-72
2021/10/06 09:26:03;;;;;;;25.50;2.30;;;;;;;12.35;32.12;101135.53;27228;1216;3048773;-75
2021/10/06 09:28:37;;;;;;;17.10;1.90;;;;;;;12.40;31.44;101139.71;27242;1215;3053144;-72
2021/10/06 09:31:11;;;;;;;15.40;2.00;;;;;;;12.57;31.90;101136.19;27219;1216;3051804;-72
2021/10/06 09:33:40;;;;;;;16.90;2.30;;;;;;;12.63;30.82;101138.23;27216;1216;3070826;-66
2021/10/06 09:36:28;;;;;;;23.10;1.80;;;;;;;12.68;30.75;101138.54;27328;1215;3026309;-71
2021/10/06 09:38:58;;;;;;;19.30;2.10;;;;;;;12.66;30.38;101130.02;27259;1216;3050930;-69
2021/10/06 09:41:46;;;;;;;11.10;1.50;;;;;;;12.73;30.56;101133.91;27261;1215;3026228;-71
2021/10/06 09:44:18;;;;;;;17.10;2.00;;;;;;;12.79;30.74;101129.61;27219;1216;3050829;-71
2021/10/06 09:46:54;;;;;;;13.60;2.10;;;;;;;12.83;30.59;101126.61;27274;1216;3026360;-72
2021/10/06 09:49:36;;;;;;;20.00;1.90;;;;;;;12.97;30.86;101127.61;27288;1215;3050815;-70
2021/10/06 09:52:15;;;;;;;14.20;2.10;;;;;;;12.88;30.25;101123.26;27248;1216;3057688;-72
2021/10/06 09:54:49;;;;;;;28.40;2.40;;;;;;;12.97;29.90;101120.60;27222;1216;3052285;-71
2021/10/06 09:57:25;;;;;;;22.00;2.20;;;;;;;13.04;29.99;101119.56;27238;1216;3051882;-73
2021/10/06 10:00:06;;;;;;;17.40;2.40;;;;;;;13.04;29.95;101120.64;27241;1216;3052292;-74
2021/10/06 10:02:42;;;;;;;10.50;1.60;;;;;;;13.03;29.70;101118.93;27261;1215;3069351;-74
2021/10/06 10:05:11;;;;;;;15.60;1.40;;;;;;;13.14;30.09;101122.30;27253;1216;3028017;-70
2021/10/06 10:07:41;;;;;;;26.90;2.20;;;;;;;13.14;30.11;101119.63;27368;1216;3052367;-70
2021/10/06 10:10:11;;;;;;;14.40;1.90;;;;;;;13.28;29.82;101113.75;27254;1216;3028960;-70
2021/10/06 10:12:40;;;;;;;21.70;2.30;;;;;;;13.37;29.51;101114.95;27264;1216;3026785;-74
2021/10/06 10:15:10;;;;;;;16.70;2.00;;;;;;;13.42;29.41;101115.22;27242;1216;3026543;-73
2021/10/06 10:17:39;;;;;;;11.10;2.20;;;;;;;13.54;29.93;101108.88;27231;1209;3026100;-73
2021/10/06 10:20:09;;;;;;;22.70;2.30;;;;;;;13.55;29.86;101107.77;27244;1216;3026979;-71
2021/10/06 10:22:41;;;;;;;18.80;1.80;;;;;;;13.51;29.22;101111.48;27201;1216;3053849;-76
2021/10/06 10:25:26;;;;;;;23.50;2.30;;;;;;;13.56;28.92;101105.83;27289;1216;3026106;-77
2021/10/06 10:28:08;;;;;;;27.20;2.80;;;;;;;13.73;29.17;101096.88;27300;1215;3054767;-72
2021/10/06 10:30:57;;;;;;;17.70;2.30;;;;;;;13.84;28.98;101095.83;27258;1215;3049562;-69
2021/10/06 10:33:37;;;;;;;14.50;1.80;;;;;;;13.75;28.45;101097.86;27301;1216;3052625;-69
2021/10/06 10:36:24;;;;;;;20.60;2.50;;;;;;;13.68;28.88;101091.16;27337;1215;3051128;-75
2021/10/06 10:38:53;;;;;;;21.10;2.70;;;;;;;13.77;29.03;101085.42;27260;1215;3070828;-77
2021/10/06 10:41:47;;;;;;;18.90;2.80;;;;;;;13.80;28.52;101081.59;27289;1216;3026125;-73
2021/10/06 10:44:26;;;;;;;20.80;2.50;;;;;;;13.84;28.46;101077.16;27318;1215;3050716;-76
2021/10/06 10:46:59;;;;;;;30.60;2.60;;;;;;;13.89;28.26;101071.13;27248;1215;3071160;-69
2021/10/06 10:49:48;;;;;;;22.80;2.60;;;;;;;13.83;28.20;101072.84;27279;1216;3051453;-69
2021/10/06 10:52:18;;;;;;;24.60;2.90;;;;;;;13.82;28.10;101075.86;27276;1215;3054663;-73
2021/10/06 10:54:47;;;;;;;39.90;2.70;;;;;;;13.88;27.67;101071.73;27335;1216;3028116;-69
2021/10/06 10:57:25;;;;;;;22.40;2.50;;;;;;;13.76;27.63;101075.09;27229;1216;3050999;-72
2021/10/06 10:59:57;;;;;;;35.60;2.50;;;;;;;13.89;27.70;101081.14;27225;1216;3052005;-73
2021/10/06 11:02:40;;;;;;;23.10;2.10;;;;;;;14.00;28.12;101075.70;27286;1216;3026084;-69
2021/10/06 11:05:10;;;;;;;27.00;2.40;;;;;;;14.16;27.37;101062.73;27296;1214;3055607;-72
2021/10/06 11:07:52;;;;;;;30.30;2.20;;;;;;;14.22;27.05;101068.41;27246;1215;3026171;-72
2021/10/06 11:10:26;;;;;;;18.50;2.50;;;;;;;14.16;26.84;101066.98;27317;1215;3052778;-70
2021/10/06 11:13:03;;;;;;;38.60;2.80;;;;;;;14.03;27.23;101057.93;27259;1215;3054127;-68
2021/10/06 11:15:33;;;;;;;27.40;2.20;;;;;;;14.03;27.14;101061.77;27266;1214;3068996;-70
2021/10/06 11:18:17;;;;;;;29.80;3.30;;;;;;;13.99;27.71;101060.41;27370;1214;3027122;-73
2021/10/06 11:20:51;;;;;;;36.50;2.70;;;;;;;13.97;27.05;101065.11;27291;1215;3054194;-74
2021/10/06 11:23:30;;;;;;;21.20;3.10;;;;;;;14.16;26.97;101054.12;27251;1216;3051833;-72
2021/10/06 11:26:19;;;;;;;29.30;3.90;;;;;;;14.30;26.75;101052.85;27254;1215;3056348;-74